createdAt,value
2018-11-29T00:00:32.867Z,22.43
2018-11-29T00:03:01.429Z,22.57
2018-11-29T00:05:30.038Z,24.53
2018-11-29T00:07:58.519Z,24.37
2018-11-29T00:10:26.970Z,23.07
2018-11-29T00:12:55.467Z,21.20
2018-11-29T00:15:24.251Z,22.60
2018-11-29T00:17:52.763Z,23.23
2018-11-29T00:20:21.470Z,21.97
2018-11-29T00:22:50.905Z,23.23
2018-11-29T00:25:19.984Z,22.73
2018-11-29T00:27:49.292Z,20.53
2018-11-29T00:30:20.707Z,21.77
2018-11-29T00:32:49.551Z,20.27
2018-11-29T00:35:18.507Z,22.13
2018-11-29T00:37:47.028Z,21.50
2018-11-29T00:40:21.554Z,22.67
2018-11-29T00:42:50.081Z,19.80
2018-11-29T00:45:19.640Z,21.20
2018-11-29T00:47:48.670Z,23.83
2018-11-29T00:50:17.839Z,22.90
2018-11-29T00:52:47.414Z,21.37
2018-11-29T00:55:20.025Z,21.10
2018-11-29T00:57:48.475Z,23.73
2018-11-29T01:00:25.633Z,20.47
2018-11-29T01:02:54.772Z,21.27
2018-11-29T01:05:23.607Z,21.80
2018-11-29T01:07:52.117Z,21.73
2018-11-29T01:10:20.752Z,21.03
2018-11-29T01:12:49.603Z,19.97
2018-11-29T01:15:19.019Z,22.07
2018-11-29T01:17:48.772Z,20.60
2018-11-29T01:20:19.967Z,20.03
2018-11-29T01:22:48.461Z,21.87
2018-11-29T01:25:17.344Z,20.03
2018-11-29T01:27:47.078Z,21.73
2018-11-29T01:30:17.583Z,19.20
2018-11-29T01:32:46.216Z,20.33
2018-11-29T01:35:16.889Z,19.97
2018-11-29T01:37:45.381Z,20.10
2018-11-29T01:40:22.492Z,17.97
2018-11-29T01:42:58.034Z,19.17
2018-11-29T01:45:27.705Z,20.03
2018-11-29T01:47:56.182Z,22.77
2018-11-29T01:50:24.633Z,20.50
2018-11-29T01:52:53.234Z,22.13
2018-11-29T01:55:21.784Z,21.20
2018-11-29T01:57:51.429Z,20.40
2018-11-29T02:00:19.972Z,22.37
2018-11-29T02:02:50.985Z,24.17
2018-11-29T02:05:19.549Z,25.03
2018-11-29T02:07:48.153Z,22.67
2018-11-29T02:10:22.190Z,23.83
2018-11-29T02:12:50.762Z,23.13
2018-11-29T02:15:19.423Z,21.07
2018-11-29T02:17:48.055Z,21.30
2018-11-29T02:20:17.494Z,23.00
2018-11-29T02:22:46.596Z,21.27
2018-11-29T02:25:18.868Z,22.90
2018-11-29T02:27:47.337Z,21.13
2018-11-29T02:30:22.693Z,22.60
2018-11-29T02:32:51.756Z,21.93
2018-11-29T02:35:20.537Z,23.33
2018-11-29T02:37:49.107Z,22.47
2018-11-29T02:40:18.169Z,21.50
2018-11-29T02:42:47.412Z,23.37
2018-11-29T02:45:20.762Z,21.73
2018-11-29T02:47:49.241Z,20.27
2018-11-29T02:50:17.713Z,23.57
2018-11-29T02:52:46.260Z,22.30
2018-11-29T02:55:14.873Z,23.33
2018-11-29T02:57:43.409Z,20.63
2018-11-29T03:00:13.906Z,24.40
2018-11-29T03:02:42.583Z,22.73
2018-11-29T03:05:11.195Z,22.53
2018-11-29T03:07:40.621Z,21.63
2018-11-29T03:10:11.037Z,20.60
2018-11-29T03:12:39.705Z,21.23
2018-11-29T03:15:15.330Z,21.57
2018-11-29T03:17:44.365Z,23.70
2018-11-29T03:20:14.537Z,23.47
2018-11-29T03:22:43.158Z,25.10
2018-11-29T03:25:13.809Z,21.37
2018-11-29T03:27:42.341Z,22.07
2018-11-29T03:30:12.635Z,25.30
2018-11-29T03:32:41.254Z,21.83
2018-11-29T03:35:10.674Z,19.40
2018-11-29T03:37:39.330Z,21.50
2018-11-29T03:40:12.924Z,24.20
2018-11-29T03:42:41.523Z,21.47
2018-11-29T03:45:15.696Z,21.70
2018-11-29T03:47:44.486Z,22.00
2018-11-29T03:50:19.549Z,21.67
2018-11-29T03:52:48.138Z,19.57
2018-11-29T03:55:16.653Z,22.07
2018-11-29T03:57:45.151Z,23.17
2018-11-29T04:00:15.439Z,20.13
2018-11-29T04:02:44.665Z,20.37
2018-11-29T04:05:13.098Z,17.57
2018-11-29T04:07:41.733Z,17.17
2018-11-29T04:10:14.009Z,19.50
2018-11-29T04:12:42.646Z,18.50
2018-11-29T04:15:12.192Z,18.50
2018-11-29T04:17:41.369Z,21.57
2018-11-29T04:20:13.400Z,20.47
2018-11-29T04:22:41.912Z,18.77
2018-11-29T04:25:12.706Z,17.57
2018-11-29T04:27:41.206Z,17.10
2018-11-29T04:30:16.671Z,19.57
2018-11-29T04:32:45.676Z,23.07
2018-11-29T04:35:15.578Z,18.77
2018-11-29T04:37:44.121Z,19.07
2018-11-29T04:40:17.460Z,20.07
2018-11-29T04:42:46.136Z,19.40
2018-11-29T04:45:16.198Z,18.90
2018-11-29T04:47:45.115Z,18.23
2018-11-29T04:50:14.130Z,21.00
2018-11-29T04:52:42.609Z,19.20
2018-11-29T04:55:11.707Z,18.60
2018-11-29T04:57:40.179Z,20.23
2018-11-29T05:00:13.331Z,20.67
2018-11-29T05:02:42.225Z,22.57
2018-11-29T05:05:11.274Z,20.23
2018-11-29T05:07:39.790Z,22.53
2018-11-29T05:10:09.905Z,21.33
2018-11-29T05:12:38.398Z,20.93
2018-11-29T05:15:08.874Z,21.67
2018-11-29T05:17:37.369Z,20.43
2018-11-29T05:20:06.237Z,21.73
2018-11-29T05:22:35.495Z,20.90
2018-11-29T05:25:04.318Z,19.57
2018-11-29T05:27:32.778Z,16.53
2018-11-29T05:30:01.414Z,17.53
2018-11-29T05:32:29.991Z,18.10
2018-11-29T05:34:58.509Z,16.90
2018-11-29T05:37:27.506Z,17.67
2018-11-29T05:39:56.178Z,17.00
2018-11-29T05:42:24.658Z,17.67
2018-11-29T05:44:53.249Z,17.93
2018-11-29T05:47:21.834Z,20.93
2018-11-29T05:49:50.439Z,16.20
2018-11-29T05:52:18.916Z,16.60
2018-11-29T05:54:47.475Z,17.40
2018-11-29T05:57:16.888Z,17.97
2018-11-29T05:59:45.697Z,17.30
2018-11-29T06:02:14.240Z,18.27
2018-11-29T06:04:42.743Z,20.07
2018-11-29T06:07:11.263Z,19.03
2018-11-29T06:09:40.164Z,21.10
2018-11-29T06:12:08.788Z,19.67
2018-11-29T06:14:37.468Z,19.67
2018-11-29T06:17:05.987Z,20.33
2018-11-29T06:19:34.443Z,21.87
2018-11-29T06:22:02.990Z,20.07
2018-11-29T06:24:31.532Z,18.73
2018-11-29T06:27:00.071Z,19.30
2018-11-29T06:29:28.652Z,17.83
2018-11-29T06:31:57.282Z,20.57
2018-11-29T06:34:25.764Z,20.23
2018-11-29T06:36:54.549Z,22.93
2018-11-29T06:39:23.093Z,19.03
2018-11-29T06:41:51.690Z,18.10
2018-11-29T06:44:20.133Z,17.47
2018-11-29T06:46:48.657Z,14.17
2018-11-29T06:49:17.184Z,17.40
2018-11-29T06:51:45.718Z,18.83
2018-11-29T06:54:14.201Z,20.40
2018-11-29T06:56:42.730Z,26.47
2018-11-29T06:59:11.253Z,25.90
2018-11-29T07:01:39.778Z,38.90
2018-11-29T07:04:08.540Z,40.57
2018-11-29T07:06:37.177Z,31.17
2018-11-29T07:09:08.214Z,31.50
2018-11-29T07:11:36.780Z,26.23
2018-11-29T07:14:05.550Z,22.83
2018-11-29T07:16:34.082Z,24.60
2018-11-29T07:19:03.122Z,26.00
2018-11-29T07:21:42.834Z,25.23
2018-11-29T07:24:11.666Z,26.07
2018-11-29T07:26:40.157Z,30.23
2018-11-29T07:29:08.711Z,27.83
2018-11-29T07:31:37.338Z,27.53
2018-11-29T07:34:07.053Z,27.97
2018-11-29T07:36:36.698Z,38.97
2018-11-29T07:39:10.703Z,28.53
2018-11-29T07:41:40.005Z,40.70
2018-11-29T07:44:10.471Z,54.30
2018-11-29T07:46:39.031Z,53.30
2018-11-29T07:49:07.585Z,51.17
2018-11-29T07:51:36.186Z,82.93
2018-11-29T07:54:05.014Z,71.80
2018-11-29T07:56:33.548Z,122.87
2018-11-29T07:59:02.203Z,69.93
2018-11-29T08:01:30.648Z,48.60
2018-11-29T08:03:59.236Z,50.27
2018-11-29T08:06:27.702Z,35.23
2018-11-29T08:08:56.258Z,45.90
2018-11-29T08:11:24.739Z,36.47
2018-11-29T08:13:54.164Z,21.77
2018-11-29T08:16:24.588Z,21.37
2018-11-29T08:18:53.129Z,23.10
2018-11-29T08:21:21.587Z,24.43
2018-11-29T08:23:50.149Z,26.17
2018-11-29T08:26:20.632Z,24.67
2018-11-29T08:28:49.127Z,20.40
2018-11-29T08:31:20.001Z,23.60
2018-11-29T08:33:53.116Z,19.27
2018-11-29T08:36:21.716Z,24.10
2018-11-29T08:38:50.206Z,19.60
2018-11-29T08:41:18.935Z,20.93
2018-11-29T08:43:47.529Z,20.27
2018-11-29T08:46:16.297Z,19.77
2018-11-29T08:48:45.745Z,19.50
2018-11-29T08:51:14.335Z,19.50
2018-11-29T08:53:42.821Z,20.63
2018-11-29T08:56:11.322Z,19.97
2018-11-29T08:58:39.814Z,19.57
2018-11-29T09:01:08.319Z,18.40
2018-11-29T09:03:36.937Z,18.37
2018-11-29T09:06:07.041Z,17.10
2018-11-29T09:08:35.874Z,16.07
2018-11-29T09:11:04.986Z,16.47
2018-11-29T09:13:33.445Z,18.13
2018-11-29T09:16:02.101Z,18.10
2018-11-29T09:18:31.070Z,19.80
2018-11-29T09:20:59.582Z,18.37
2018-11-29T09:23:28.101Z,19.23
2018-11-29T09:25:57.323Z,18.87
2018-11-29T09:28:25.766Z,20.23
2018-11-29T09:30:54.273Z,19.17
2018-11-29T09:33:22.927Z,17.93
2018-11-29T09:35:51.406Z,18.00
2018-11-29T09:38:19.950Z,15.93
2018-11-29T09:40:48.470Z,14.93
2018-11-29T09:43:17.686Z,17.03
2018-11-29T09:45:46.182Z,74.60
2018-11-29T09:48:15.159Z,17.63
2018-11-29T09:50:44.374Z,17.77
2018-11-29T09:53:12.905Z,14.97
2018-11-29T09:55:41.527Z,15.57
2018-11-29T09:58:10.065Z,16.70
2018-11-29T10:00:38.626Z,18.57
2018-11-29T10:03:11.665Z,14.67
2018-11-29T10:05:41.106Z,16.67
2018-11-29T10:08:11.952Z,15.00
2018-11-29T10:10:39.690Z,15.37
2018-11-29T10:13:08.707Z,16.13
2018-11-29T10:15:38.220Z,16.83
2018-11-29T10:18:07.186Z,17.40
2018-11-29T10:20:35.678Z,21.60
2018-11-29T10:23:04.195Z,19.83
2018-11-29T10:25:33.317Z,40.50
2018-11-29T10:28:06.661Z,20.90
2018-11-29T10:30:39.044Z,22.27
2018-11-29T10:33:08.092Z,23.90
2018-11-29T10:35:37.411Z,42.23
2018-11-29T10:38:06.072Z,22.10
2018-11-29T10:40:34.601Z,16.47
2018-11-29T10:43:03.061Z,19.60
2018-11-29T10:45:31.537Z,23.07
2018-11-29T10:48:00.043Z,17.80
2018-11-29T10:50:29.297Z,15.57
2018-11-29T10:52:58.368Z,18.30
2018-11-29T10:55:26.893Z,17.33
2018-11-29T10:57:55.511Z,18.87
2018-11-29T11:00:30.236Z,17.87
2018-11-29T11:03:18.957Z,17.60
2018-11-29T11:05:49.703Z,18.77
2018-11-29T11:08:18.396Z,25.00
2018-11-29T11:10:46.943Z,19.80
2018-11-29T11:13:15.526Z,16.97
2018-11-29T11:15:45.018Z,16.93
2018-11-29T11:18:14.628Z,19.47
2018-11-29T11:20:43.184Z,18.57
2018-11-29T11:23:11.799Z,18.97
2018-11-29T11:25:40.458Z,18.50
2018-11-29T11:28:09.890Z,17.57
2018-11-29T11:30:41.221Z,17.13
2018-11-29T11:33:09.708Z,19.93
2018-11-29T11:35:38.326Z,20.23
2018-11-29T11:38:06.922Z,21.40
2018-11-29T11:40:35.506Z,19.57
2018-11-29T11:43:05.396Z,20.47
2018-11-29T11:45:33.173Z,20.20
2018-11-29T11:48:03.429Z,21.23
2018-11-29T11:50:30.270Z,25.20
2018-11-29T11:52:58.832Z,23.40
2018-11-29T11:55:30.230Z,19.97
2018-11-29T11:57:56.203Z,21.87
2018-11-29T12:00:26.796Z,22.33
2018-11-29T12:02:57.487Z,21.70
2018-11-29T12:05:25.982Z,23.70
2018-11-29T12:07:54.558Z,23.73
2018-11-29T12:10:23.101Z,22.30
2018-11-29T12:12:51.934Z,21.57
2018-11-29T12:15:20.426Z,23.17
2018-11-29T12:17:49.093Z,24.27
2018-11-29T12:20:18.753Z,25.87
2018-11-29T12:22:47.364Z,23.77
2018-11-29T12:25:17.702Z,23.37
2018-11-29T12:27:46.184Z,28.97
2018-11-29T12:30:29.850Z,21.20
2018-11-29T12:32:59.803Z,22.40
2018-11-29T12:35:29.504Z,22.70
2018-11-29T12:37:58.075Z,21.87
2018-11-29T12:40:26.611Z,20.80
2018-11-29T12:42:55.147Z,22.20
2018-11-29T12:45:23.656Z,22.97
2018-11-29T12:47:52.264Z,21.00
2018-11-29T12:50:24.107Z,19.63
2018-11-29T12:52:52.809Z,23.00
2018-11-29T12:55:22.178Z,27.07
2018-11-29T12:58:04.706Z,24.23
2018-11-29T13:00:20.189Z,21.87
2018-11-29T13:02:58.490Z,23.23
2018-11-29T13:05:28.140Z,21.43
2018-11-29T13:07:57.012Z,19.60
2018-11-29T13:10:26.779Z,19.17
2018-11-29T13:12:56.924Z,18.03
2018-11-29T13:15:29.501Z,21.33
2018-11-29T13:17:58.813Z,21.20
2018-11-29T13:20:32.324Z,20.73
2018-11-29T13:22:55.991Z,28.20
2018-11-29T13:25:25.773Z,23.47
2018-11-29T13:27:54.967Z,20.80
2018-11-29T13:30:23.897Z,21.10
2018-11-29T13:32:54.742Z,25.50
2018-11-29T13:35:26.646Z,23.37
2018-11-29T13:37:58.175Z,21.07
2018-11-29T13:40:27.231Z,18.87
2018-11-29T13:42:55.758Z,18.90
2018-11-29T13:45:24.440Z,19.73
2018-11-29T13:47:52.853Z,17.73
2018-11-29T13:50:21.429Z,18.73
2018-11-29T13:52:49.937Z,19.80
2018-11-29T13:55:18.635Z,18.40
2018-11-29T13:57:49.553Z,20.67
2018-11-29T14:00:19.986Z,15.30
2018-11-29T14:02:50.568Z,17.67
2018-11-29T14:05:19.552Z,18.90
2018-11-29T14:07:48.053Z,18.67
2018-11-29T14:10:18.637Z,18.77
2018-11-29T14:12:48.302Z,20.17
2018-11-29T14:15:19.182Z,21.50
2018-11-29T14:17:47.652Z,18.33
2018-11-29T14:20:16.261Z,17.97
2018-11-29T14:22:44.808Z,21.77
2018-11-29T14:25:14.407Z,17.13
2018-11-29T14:27:45.377Z,17.20
2018-11-29T14:30:17.691Z,18.03
2018-11-29T14:32:46.616Z,17.87
2018-11-29T14:35:16.077Z,18.27
2018-11-29T14:37:44.736Z,17.63
2018-11-29T14:40:14.548Z,17.93
2018-11-29T14:42:43.053Z,18.27
2018-11-29T14:45:12.508Z,16.40
2018-11-29T14:47:41.169Z,17.07
2018-11-29T14:50:17.843Z,21.83
2018-11-29T14:52:46.412Z,18.47
2018-11-29T14:55:15.228Z,20.13
2018-11-29T14:57:43.769Z,21.73
2018-11-29T15:00:13.289Z,38.53
2018-11-29T15:02:41.975Z,29.03
2018-11-29T15:05:14.150Z,23.70
2018-11-29T15:07:42.680Z,21.13
2018-11-29T15:10:11.438Z,27.47
2018-11-29T15:12:40.118Z,25.20
2018-11-29T15:15:10.866Z,23.67
2018-11-29T15:17:40.593Z,25.40
2018-11-29T15:20:13.549Z,19.17
2018-11-29T15:22:42.319Z,22.60
2018-11-29T15:25:11.040Z,19.20
2018-11-29T15:27:39.551Z,22.50
2018-11-29T15:30:14.479Z,21.53
2018-11-29T15:32:42.949Z,21.17
2018-11-29T15:35:12.234Z,20.87
2018-11-29T15:37:40.959Z,24.30
2018-11-29T15:40:11.056Z,19.07
2018-11-29T15:42:40.481Z,22.00
2018-11-29T15:45:11.667Z,23.60
2018-11-29T15:47:40.196Z,29.17
2018-11-29T15:50:11.323Z,22.83
2018-11-29T15:52:39.821Z,22.67
2018-11-29T15:55:14.427Z,26.00
2018-11-29T15:57:42.943Z,23.90
2018-11-29T16:00:17.625Z,25.57
2018-11-29T16:02:48.247Z,26.20
2018-11-29T16:05:18.368Z,29.07
2018-11-29T16:07:46.946Z,26.67
2018-11-29T16:10:19.650Z,23.37
2018-11-29T16:12:48.442Z,23.03
2018-11-29T16:15:19.025Z,20.13
2018-11-29T16:17:48.304Z,24.20
2018-11-29T16:20:19.360Z,22.33
2018-11-29T16:22:47.978Z,20.73
2018-11-29T16:25:16.749Z,28.10
2018-11-29T16:27:45.329Z,26.57
2018-11-29T16:30:26.532Z,21.07
2018-11-29T16:32:56.066Z,18.80
2018-11-29T16:35:25.197Z,19.10
2018-11-29T16:37:54.545Z,19.67
2018-11-29T16:40:23.973Z,20.77
2018-11-29T16:42:52.498Z,17.77
2018-11-29T16:45:22.193Z,21.13
2018-11-29T16:47:51.744Z,21.27
2018-11-29T16:50:20.501Z,22.07
2018-11-29T16:52:49.075Z,22.70
2018-11-29T16:55:17.639Z,21.37
2018-11-29T16:57:48.594Z,22.00
2018-11-29T17:00:20.187Z,22.17
2018-11-29T17:02:48.810Z,23.23
2018-11-29T17:05:17.866Z,24.80
2018-11-29T17:07:47.620Z,21.93
2018-11-29T17:10:17.316Z,28.27
2018-11-29T17:12:50.783Z,18.73
2018-11-29T17:15:20.507Z,15.30
2018-11-29T17:17:49.060Z,14.03
2018-11-29T17:20:18.626Z,17.87
2018-11-29T17:22:48.242Z,19.93
2018-11-29T17:25:16.830Z,16.77
2018-11-29T17:27:45.300Z,18.80
2018-11-29T17:30:18.242Z,17.77
2018-11-29T17:32:46.906Z,18.50
2018-11-29T17:35:15.383Z,19.97
2018-11-29T17:37:43.935Z,21.17
2018-11-29T17:40:14.478Z,17.90
2018-11-29T17:42:43.206Z,17.50
2018-11-29T17:45:14.161Z,23.90
2018-11-29T17:47:43.649Z,25.57
2018-11-29T17:50:46.047Z,40.60
2018-11-29T17:53:14.688Z,58.53
2018-11-29T17:55:43.722Z,82.20
2018-11-29T17:58:14.785Z,78.07
2018-11-29T18:00:44.909Z,78.67
2018-11-29T18:03:15.516Z,65.43
2018-11-29T18:05:44.117Z,60.03
2018-11-29T18:08:12.633Z,60.13
2018-11-29T18:10:41.889Z,63.60
2018-11-29T18:13:19.486Z,62.23
2018-11-29T18:15:48.050Z,47.40
2018-11-29T18:18:16.528Z,65.10
2018-11-29T18:20:45.129Z,49.97
2018-11-29T18:23:14.199Z,72.00
2018-11-29T18:25:42.816Z,33.53
2018-11-29T18:28:11.975Z,36.57
2018-11-29T18:30:41.113Z,46.07
2018-11-29T18:33:09.705Z,60.33
2018-11-29T18:35:39.722Z,38.03
2018-11-29T18:38:08.552Z,31.43
2018-11-29T18:40:37.249Z,36.63
2018-11-29T18:43:07.617Z,38.07
2018-11-29T18:45:36.250Z,40.60
2018-11-29T18:48:04.883Z,46.40
2018-11-29T18:50:34.396Z,25.83
2018-11-29T18:53:03.022Z,26.10
2018-11-29T18:55:31.813Z,35.00
2018-11-29T18:58:00.502Z,23.77
2018-11-29T19:00:32.446Z,33.37
2018-11-29T19:03:01.014Z,52.37
2018-11-29T19:05:29.634Z,76.00
2018-11-29T19:07:58.196Z,60.23
2018-11-29T19:10:26.904Z,32.97
2018-11-29T19:13:06.780Z,43.17
2018-11-29T19:15:36.153Z,30.90
2018-11-29T19:18:10.297Z,33.87
2018-11-29T19:20:34.756Z,28.57
2018-11-29T19:23:04.250Z,30.97
2018-11-29T19:25:32.915Z,34.30
2018-11-29T19:28:01.460Z,34.87
2018-11-29T19:30:31.872Z,43.03
2018-11-29T19:33:06.033Z,29.10
2018-11-29T19:35:35.524Z,67.77
2018-11-29T19:38:05.631Z,64.33
2018-11-29T19:40:34.221Z,38.53
2018-11-29T19:43:05.532Z,36.73
2018-11-29T19:45:34.173Z,49.47
2018-11-29T19:48:04.104Z,48.17
2018-11-29T19:50:33.097Z,69.70
2018-11-29T19:53:02.608Z,31.23
2018-11-29T19:55:32.951Z,36.53
2018-11-29T19:58:02.301Z,28.27
2018-11-29T20:00:31.779Z,28.07
2018-11-29T20:03:01.111Z,29.93
2018-11-29T20:05:30.398Z,60.80
2018-11-29T20:07:59.190Z,40.43
2018-11-29T20:10:28.711Z,38.70
2018-11-29T20:13:02.803Z,31.60
2018-11-29T20:15:33.200Z,29.73
2018-11-29T20:18:02.528Z,27.77
2018-11-29T20:20:31.266Z,84.17
2018-11-29T20:23:00.171Z,25.20
2018-11-29T20:25:29.556Z,21.30
2018-11-29T20:27:58.215Z,23.30
2018-11-29T20:30:26.863Z,40.87
2018-11-29T20:32:56.421Z,37.50
2018-11-29T20:35:25.064Z,27.97
2018-11-29T20:37:54.315Z,32.93
2018-11-29T20:40:28.945Z,34.20
2018-11-29T20:42:58.889Z,29.57
2018-11-29T20:45:38.010Z,27.40
2018-11-29T20:48:18.294Z,35.43
2018-11-29T20:50:47.493Z,26.80
2018-11-29T20:53:18.103Z,23.43
2018-11-29T20:55:47.326Z,25.10
2018-11-29T20:58:16.462Z,25.17
2018-11-29T21:00:45.141Z,30.40
2018-11-29T21:03:13.812Z,48.97
2018-11-29T21:05:43.237Z,33.30
2018-11-29T21:08:12.584Z,21.90
2018-11-29T21:10:41.289Z,25.47
2018-11-29T21:13:09.893Z,38.40
2018-11-29T21:15:40.666Z,30.63
2018-11-29T21:18:11.485Z,23.63
2018-11-29T21:20:41.542Z,19.23
2018-11-29T21:23:11.779Z,23.20
2018-11-29T21:25:40.548Z,20.53
2018-11-29T21:28:09.192Z,21.23
2018-11-29T21:30:38.487Z,20.77
2018-11-29T21:33:07.788Z,22.47
2018-11-29T21:35:36.398Z,23.67
2018-11-29T21:38:12.386Z,25.03
2018-11-29T21:40:42.406Z,23.53
2018-11-29T21:43:11.688Z,22.13
2018-11-29T21:45:40.784Z,22.57
2018-11-29T21:48:09.382Z,19.27
2018-11-29T21:50:38.546Z,29.50
2018-11-29T21:53:07.315Z,19.87
2018-11-29T21:55:36.145Z,20.50
2018-11-29T21:58:04.709Z,19.20
2018-11-29T22:00:33.522Z,21.87
2018-11-29T22:03:02.141Z,25.47
2018-11-29T22:05:30.843Z,19.90
2018-11-29T22:07:59.457Z,22.20
2018-11-29T22:10:28.008Z,20.40
2018-11-29T22:12:57.199Z,42.40
2018-11-29T22:15:27.018Z,26.33
2018-11-29T22:18:02.756Z,31.17
2018-11-29T22:20:31.725Z,32.10
2018-11-29T22:23:00.352Z,30.57
2018-11-29T22:25:29.359Z,26.63
2018-11-29T22:27:58.853Z,31.63
2018-11-29T22:30:27.565Z,26.70
2018-11-29T22:32:56.106Z,26.70
2018-11-29T22:35:25.114Z,24.83
2018-11-29T22:37:53.664Z,33.27
2018-11-29T22:40:22.291Z,21.97
2018-11-29T22:42:50.962Z,24.00
2018-11-29T22:45:22.147Z,21.33
2018-11-29T22:47:50.813Z,20.80
2018-11-29T22:50:33.090Z,19.73
2018-11-29T22:53:12.461Z,21.17
2018-11-29T22:55:42.871Z,17.50
2018-11-29T22:58:11.418Z,26.70
2018-11-29T23:00:45.370Z,23.90
2018-11-29T23:03:14.276Z,23.20
2018-11-29T23:05:43.785Z,23.00
2018-11-29T23:08:13.001Z,22.63
2018-11-29T23:11:12.449Z,21.57
2018-11-29T23:13:40.995Z,18.63
2018-11-29T23:16:09.725Z,19.13
2018-11-29T23:18:38.330Z,18.53
2018-11-29T23:21:07.039Z,18.57
2018-11-29T23:23:35.853Z,20.93
2018-11-29T23:26:04.421Z,18.20
2018-11-29T23:28:33.235Z,19.30
2018-11-29T23:31:01.898Z,18.20
2018-11-29T23:33:30.539Z,21.13
2018-11-29T23:35:59.193Z,21.03
2018-11-29T23:38:27.808Z,21.43
2018-11-29T23:40:57.026Z,20.20
2018-11-29T23:43:25.960Z,19.13
2018-11-29T23:45:54.731Z,17.47
2018-11-29T23:48:23.477Z,17.87
2018-11-29T23:50:52.171Z,17.10
2018-11-29T23:53:20.808Z,16.90
2018-11-29T23:55:49.433Z,19.50
2018-11-29T23:58:18.001Z,17.83
